createdAt,value
2019-05-06T00:04:00.958Z,38.20
2019-05-06T00:09:05.677Z,38.10
2019-05-06T00:14:09.365Z,38.10
2019-05-06T00:19:13.860Z,38.20
2019-05-06T00:24:17.675Z,38.10
2019-05-06T00:29:24.994Z,38.10
2019-05-06T00:34:28.652Z,38.20
2019-05-06T00:40:00.494Z,38.20
2019-05-06T00:45:05.047Z,38.20
2019-05-06T00:50:09.303Z,38.10
2019-05-06T00:55:13.706Z,38.10
2019-05-06T01:00:19.614Z,38.10
2019-05-06T01:05:24.408Z,38.80
2019-05-06T01:10:28.246Z,38.10
2019-05-06T01:15:34.255Z,38.10
2019-05-06T01:20:37.506Z,38.10
2019-05-06T01:25:41.357Z,38.00
2019-05-06T01:30:45.573Z,37.90
2019-05-06T01:35:49.226Z,38.10
2019-05-06T01:41:11.023Z,38.00
2019-05-06T01:46:14.964Z,37.90
2019-05-06T01:51:18.995Z,38.10
2019-05-06T01:56:24.173Z,38.10
2019-05-06T02:01:27.961Z,38.00
2019-05-06T02:06:31.596Z,38.00
2019-05-06T02:11:35.253Z,38.10
2019-05-06T02:16:38.953Z,38.10
2019-05-06T02:22:00.544Z,38.10
2019-05-06T02:27:05.045Z,38.00
2019-05-06T02:32:31.369Z,37.90
2019-05-06T02:37:40.518Z,38.10
2019-05-06T02:42:44.236Z,38.10
2019-05-06T02:48:22.939Z,38.00
2019-05-06T02:53:26.990Z,37.90
2019-05-06T02:58:32.999Z,37.90
2019-05-06T03:03:36.010Z,38.00
2019-05-06T03:08:39.706Z,38.00
2019-05-06T03:13:44.041Z,38.00
2019-05-06T03:18:47.814Z,38.00
2019-05-06T03:23:57.618Z,37.90
2019-05-06T03:29:02.924Z,37.90
2019-05-06T03:34:27.640Z,37.90
2019-05-06T03:39:13.855Z,37.80
2019-05-06T03:44:17.902Z,37.80
2019-05-06T03:49:23.847Z,37.80
2019-05-06T03:54:27.581Z,37.80
2019-05-06T03:59:33.550Z,37.90
2019-05-06T04:04:36.886Z,37.90
2019-05-06T04:09:43.952Z,37.90
2019-05-06T04:14:45.941Z,37.90
2019-05-06T04:19:54.289Z,37.80
2019-05-06T04:25:29.157Z,38.00
2019-05-06T04:30:33.517Z,37.90
2019-05-06T04:35:37.198Z,37.90
2019-05-06T04:40:43.688Z,37.80
2019-05-06T04:45:46.443Z,37.80
2019-05-06T04:50:53.324Z,37.80
2019-05-06T04:55:55.696Z,37.80
2019-05-06T05:00:59.715Z,37.80
2019-05-06T05:06:05.877Z,37.80
2019-05-06T05:11:22.491Z,37.80
2019-05-06T05:16:39.628Z,37.80
2019-05-06T05:21:43.358Z,37.80
2019-05-06T05:26:52.176Z,37.80
2019-05-06T05:31:56.088Z,37.80
2019-05-06T05:36:59.914Z,37.80
2019-05-06T05:42:12.804Z,37.80
2019-05-06T05:47:16.582Z,37.80
2019-05-06T05:52:22.265Z,37.90
2019-05-06T05:57:25.950Z,37.80
2019-05-06T06:02:29.779Z,37.90
2019-05-06T06:07:33.525Z,37.80
2019-05-06T06:12:37.239Z,37.90
2019-05-06T06:18:00.084Z,37.90
2019-05-06T06:23:09.911Z,38.00
2019-05-06T06:28:13.721Z,37.90
2019-05-06T06:33:17.482Z,37.90
2019-05-06T06:38:47.846Z,37.90
2019-05-06T06:43:54.451Z,38.00
2019-05-06T06:48:58.557Z,38.10
2019-05-06T06:54:02.634Z,38.10
2019-05-06T06:59:22.249Z,38.10
2019-05-06T07:04:33.496Z,38.00
2019-05-06T07:09:37.302Z,38.00
2019-05-06T07:14:42.801Z,38.10
2019-05-06T07:19:52.758Z,38.10
2019-05-06T07:24:56.502Z,38.10
2019-05-06T07:30:02.831Z,38.10
2019-05-06T07:35:06.415Z,38.10
2019-05-06T07:40:12.516Z,38.70
2019-05-06T07:45:24.777Z,38.10
2019-05-06T07:50:28.560Z,38.10
2019-05-06T07:55:32.842Z,38.10
2019-05-06T08:00:36.526Z,38.20
2019-05-06T08:05:52.792Z,38.10
2019-05-06T08:10:45.768Z,38.10
2019-05-06T08:15:49.570Z,38.10
2019-05-06T08:20:53.295Z,38.20
2019-05-06T08:26:09.270Z,38.20
2019-05-06T08:31:02.696Z,38.10
2019-05-06T08:36:14.035Z,38.00
2019-05-06T08:41:14.867Z,38.10
2019-05-06T08:46:18.675Z,38.10
2019-05-06T08:51:33.061Z,38.00
2019-05-06T08:56:35.779Z,38.10
2019-05-06T09:01:48.254Z,38.10
2019-05-06T09:06:53.475Z,38.10
2019-05-06T09:11:57.353Z,38.20
2019-05-06T09:17:02.908Z,38.20
2019-05-06T09:22:06.434Z,38.10
2019-05-06T09:27:38.404Z,38.10
2019-05-06T09:32:43.767Z,38.10
2019-05-06T09:37:47.528Z,38.10
2019-05-06T09:42:52.079Z,38.10
2019-05-06T09:48:05.250Z,38.20
2019-05-06T09:53:13.202Z,38.10
2019-05-06T09:58:16.937Z,38.00
2019-05-06T10:03:22.514Z,38.10
2019-05-06T10:08:26.030Z,38.20
2019-05-06T10:13:29.693Z,38.10
2019-05-06T10:18:33.396Z,38.10
2019-05-06T10:23:37.044Z,38.10
2019-05-06T10:28:45.626Z,38.10
2019-05-06T10:34:06.975Z,38.10
2019-05-06T10:39:12.667Z,38.10
2019-05-06T10:44:25.222Z,38.00
2019-05-06T10:49:29.219Z,38.00
2019-05-06T10:54:32.958Z,38.00
2019-05-06T10:59:36.635Z,38.10
2019-05-06T11:04:42.467Z,38.10
2019-05-06T11:09:45.950Z,38.00
2019-05-06T11:14:53.276Z,38.00
2019-05-06T11:19:55.319Z,37.90
2019-05-06T11:24:59.012Z,38.20
2019-05-06T11:30:04.359Z,38.00
2019-05-06T11:35:12.937Z,38.00
2019-05-06T11:40:17.186Z,38.10
2019-05-06T11:45:22.805Z,38.00
2019-05-06T11:50:26.652Z,38.10
2019-05-06T11:55:34.374Z,38.10
2019-05-06T12:00:40.547Z,38.00
2019-05-06T12:05:44.350Z,38.10
2019-05-06T12:10:48.037Z,38.00
2019-05-06T12:15:52.513Z,38.00
2019-05-06T12:21:08.298Z,38.10
2019-05-06T12:26:02.562Z,38.80
2019-05-06T12:31:06.406Z,38.10
2019-05-06T12:36:23.284Z,38.10
2019-05-06T12:41:27.923Z,38.10
2019-05-06T12:46:35.741Z,38.10
2019-05-06T12:51:39.443Z,38.10
2019-05-06T12:56:43.295Z,38.10
2019-05-06T13:01:47.077Z,38.10
2019-05-06T13:06:52.203Z,38.10
2019-05-06T13:11:56.186Z,38.10
2019-05-06T13:16:59.921Z,38.10
2019-05-06T13:22:04.059Z,38.10
2019-05-06T13:27:09.741Z,38.10
2019-05-06T13:32:16.486Z,38.10
2019-05-06T13:37:22.814Z,38.00
2019-05-06T13:42:27.800Z,38.00
2019-05-06T13:47:49.196Z,37.90
2019-05-06T13:53:08.289Z,38.00
2019-05-06T13:58:00.219Z,37.90
2019-05-06T14:03:04.027Z,38.00
2019-05-06T14:08:07.994Z,38.10
2019-05-06T14:13:12.879Z,38.00
2019-05-06T14:18:17.139Z,38.00
2019-05-06T14:23:22.050Z,38.00
2019-05-06T14:28:32.431Z,38.10
2019-05-06T14:33:36.573Z,38.10
2019-05-06T14:38:42.808Z,38.00
2019-05-06T14:43:45.850Z,38.00
2019-05-06T14:48:49.613Z,38.00
2019-05-06T14:53:53.397Z,38.10
2019-05-06T14:59:09.212Z,38.10
2019-05-06T15:04:12.912Z,38.40
2019-05-06T15:09:16.659Z,38.00
2019-05-06T15:14:22.669Z,38.10
2019-05-06T15:19:26.265Z,38.10
2019-05-06T15:24:29.978Z,38.10
2019-05-06T15:29:33.781Z,38.10
2019-05-06T15:34:58.613Z,38.10
2019-05-06T15:40:03.132Z,38.10
2019-05-06T15:45:07.090Z,38.10
2019-05-06T15:50:12.728Z,38.00
2019-05-06T15:55:16.736Z,38.10
2019-05-06T16:00:22.564Z,38.00
2019-05-06T16:05:26.857Z,38.10
2019-05-06T16:10:34.311Z,38.10
2019-05-06T16:15:36.242Z,38.00
2019-05-06T16:20:39.921Z,38.10
2019-05-06T16:25:56.565Z,38.10
2019-05-06T16:31:02.430Z,38.00
2019-05-06T16:36:06.872Z,38.10
2019-05-06T16:41:13.882Z,38.10
2019-05-06T16:46:17.269Z,38.10
2019-05-06T16:51:22.331Z,38.00
2019-05-06T16:56:45.864Z,38.00
2019-05-06T17:01:56.364Z,38.00
2019-05-06T17:07:01.142Z,38.10
2019-05-06T17:12:06.228Z,38.00
2019-05-06T17:17:10.682Z,38.00
2019-05-06T17:22:14.467Z,38.10
2019-05-06T17:27:18.462Z,38.20
2019-05-06T17:32:33.299Z,38.10
2019-05-06T17:37:52.943Z,38.10
2019-05-06T17:42:56.708Z,38.20
2019-05-06T17:48:06.566Z,38.10
2019-05-06T17:53:11.756Z,38.20
2019-05-06T17:58:15.791Z,38.10
2019-05-06T18:03:19.590Z,38.10
2019-05-06T18:08:23.423Z,38.10
2019-05-06T18:13:27.113Z,38.20
2019-05-06T18:18:31.551Z,38.10
2019-05-06T18:23:35.254Z,38.20
2019-05-06T18:28:39.001Z,38.10
2019-05-06T18:33:43.207Z,38.10
2019-05-06T18:38:47.160Z,38.10
2019-05-06T18:43:53.290Z,38.10
2019-05-06T18:48:56.531Z,38.10
2019-05-06T18:54:00.209Z,38.20
2019-05-06T18:59:03.903Z,38.10
2019-05-06T19:04:36.061Z,38.20
2019-05-06T19:09:48.734Z,38.10
2019-05-06T19:14:52.648Z,38.10
2019-05-06T19:19:57.971Z,38.20
2019-05-06T19:25:02.621Z,38.10
2019-05-06T19:30:06.895Z,38.10
2019-05-06T19:35:13.061Z,38.10
2019-05-06T19:40:16.209Z,38.10
2019-05-06T19:45:22.312Z,38.20
2019-05-06T19:50:26.020Z,38.30
2019-05-06T19:55:29.899Z,38.30
2019-05-06T20:00:33.702Z,38.20
2019-05-06T20:05:43.316Z,38.20
2019-05-06T20:10:56.720Z,38.20
2019-05-06T20:16:02.256Z,38.30
2019-05-06T20:21:05.824Z,38.30
2019-05-06T20:26:09.833Z,38.40
2019-05-06T20:31:13.525Z,38.40
2019-05-06T20:36:17.270Z,38.40
2019-05-06T20:41:22.149Z,38.40
2019-05-06T20:46:26.048Z,38.40
2019-05-06T20:51:29.810Z,38.40
2019-05-06T20:56:33.547Z,38.40
2019-05-06T21:01:37.693Z,38.40
2019-05-06T21:06:42.594Z,38.40
2019-05-06T21:11:46.608Z,38.50
2019-05-06T21:16:50.542Z,38.40
2019-05-06T21:21:54.354Z,38.40
2019-05-06T21:26:58.173Z,38.40
2019-05-06T21:32:02.708Z,38.40
2019-05-06T21:37:06.550Z,38.40
2019-05-06T21:42:12.095Z,38.40
2019-05-06T21:47:15.571Z,38.40
2019-05-06T21:52:33.646Z,38.40
2019-05-06T21:57:24.862Z,39.00
2019-05-06T22:02:28.565Z,38.50
2019-05-06T22:07:33.234Z,38.40
2019-05-06T22:12:37.782Z,38.40
2019-05-06T22:17:42.932Z,38.40
2019-05-06T22:22:47.059Z,38.50
2019-05-06T22:27:51.922Z,38.50
2019-05-06T22:32:55.820Z,38.40
2019-05-06T22:37:59.461Z,38.40
2019-05-06T22:43:03.272Z,38.40
2019-05-06T22:48:06.955Z,38.40
2019-05-06T22:53:12.941Z,38.30
2019-05-06T22:58:16.107Z,38.40
2019-05-06T23:03:22.784Z,38.40
2019-05-06T23:08:26.905Z,38.40
2019-05-06T23:13:30.628Z,38.40
2019-05-06T23:18:34.272Z,38.40
2019-05-06T23:23:38.043Z,38.50
2019-05-06T23:28:43.659Z,38.40
2019-05-06T23:33:47.133Z,38.40
2019-05-06T23:39:26.771Z,38.40
2019-05-06T23:45:06.589Z,38.40
2019-05-06T23:50:45.966Z,38.40
2019-05-06T23:56:25.384Z,38.50
